createdAt,value
2018-08-10T00:00:44.011Z,18.30
2018-08-10T00:03:12.687Z,18.30
2018-08-10T00:05:42.325Z,18.10
2018-08-10T00:08:10.620Z,18.00
2018-08-10T00:10:38.883Z,18.00
2018-08-10T00:13:07.148Z,17.80
2018-08-10T00:15:35.702Z,17.90
2018-08-10T00:18:04.350Z,17.90
2018-08-10T00:20:33.174Z,17.70
2018-08-10T00:23:02.127Z,17.90
2018-08-10T00:25:30.695Z,17.80
2018-08-10T00:27:59.436Z,17.90
2018-08-10T00:30:28.606Z,17.90
2018-08-10T00:32:56.901Z,17.80
2018-08-10T00:35:25.370Z,17.70
2018-08-10T00:37:54.199Z,17.70
2018-08-10T00:40:23.804Z,17.70
2018-08-10T00:42:52.088Z,17.70
2018-08-10T00:45:20.688Z,17.60
2018-08-10T00:47:49.783Z,17.60
2018-08-10T00:50:18.647Z,17.50
2018-08-10T00:52:47.580Z,17.50
2018-08-10T00:55:17.196Z,17.60
2018-08-10T00:57:46.240Z,17.70
2018-08-10T01:00:19.647Z,17.70
2018-08-10T01:02:48.400Z,17.70
2018-08-10T01:05:16.979Z,17.70
2018-08-10T01:07:45.564Z,17.70
2018-08-10T01:10:16.019Z,17.80
2018-08-10T01:12:44.314Z,17.70
2018-08-10T01:15:14.527Z,17.70
2018-08-10T01:17:43.305Z,17.70
2018-08-10T01:20:19.863Z,17.70
2018-08-10T01:22:53.984Z,17.60
2018-08-10T01:25:24.318Z,17.70
2018-08-10T01:27:56.831Z,17.70
2018-08-10T01:30:27.176Z,17.70
2018-08-10T01:32:55.468Z,17.60
2018-08-10T01:35:24.884Z,17.70
2018-08-10T01:37:53.624Z,17.60
2018-08-10T01:40:22.325Z,17.70
2018-08-10T01:42:50.864Z,17.60
2018-08-10T01:45:19.500Z,17.60
2018-08-10T01:47:47.770Z,17.60
2018-08-10T01:50:16.069Z,17.70
2018-08-10T01:52:44.633Z,17.60
2018-08-10T01:55:13.213Z,17.70
2018-08-10T01:57:41.603Z,17.70
2018-08-10T02:00:10.538Z,17.70
2018-08-10T02:02:38.880Z,17.70
2018-08-10T02:05:09.836Z,17.60
2018-08-10T02:07:39.251Z,17.70
2018-08-10T02:10:11.720Z,17.60
2018-08-10T02:12:41.168Z,17.60
2018-08-10T02:15:13.540Z,17.60
2018-08-10T02:17:41.863Z,17.60
2018-08-10T02:20:12.726Z,17.70
2018-08-10T02:22:41.335Z,17.60
2018-08-10T02:25:11.685Z,17.60
2018-08-10T02:27:40.907Z,17.60
2018-08-10T02:30:11.403Z,17.60
2018-08-10T02:32:41.148Z,17.60
2018-08-10T02:35:09.469Z,17.50
2018-08-10T02:37:38.974Z,17.60
2018-08-10T02:40:12.376Z,17.50
2018-08-10T02:42:40.999Z,17.60
2018-08-10T02:45:09.616Z,17.60
2018-08-10T02:47:38.266Z,17.60
2018-08-10T02:50:06.599Z,17.70
2018-08-10T02:52:35.034Z,17.60
2018-08-10T02:55:03.579Z,17.60
2018-08-10T02:57:32.327Z,17.60
2018-08-10T03:00:00.676Z,17.60
2018-08-10T03:02:29.327Z,17.70
2018-08-10T03:04:57.922Z,17.60
2018-08-10T03:07:26.334Z,17.60
2018-08-10T03:09:55.003Z,17.70
2018-08-10T03:12:23.885Z,17.70
2018-08-10T03:14:52.466Z,17.60
2018-08-10T03:17:20.768Z,17.70
2018-08-10T03:19:49.442Z,17.60
2018-08-10T03:22:18.163Z,17.60
2018-08-10T03:24:47.136Z,17.60
2018-08-10T03:27:15.413Z,17.60
2018-08-10T03:29:44.127Z,17.50
2018-08-10T03:32:12.606Z,17.50
2018-08-10T03:34:41.493Z,17.50
2018-08-10T03:37:09.779Z,17.50
2018-08-10T03:39:38.075Z,17.50
2018-08-10T03:42:07.004Z,17.60
2018-08-10T03:44:35.310Z,17.60
2018-08-10T03:47:04.110Z,17.60
2018-08-10T03:49:32.365Z,17.70
2018-08-10T03:52:00.636Z,17.70
2018-08-10T03:54:28.917Z,17.70
2018-08-10T03:56:57.518Z,17.70
2018-08-10T03:59:26.067Z,17.60
2018-08-10T04:01:55.030Z,17.70
2018-08-10T04:04:23.619Z,17.70
2018-08-10T04:06:51.878Z,17.70
2018-08-10T04:09:20.766Z,17.80
2018-08-10T04:11:49.365Z,17.80
2018-08-10T04:14:18.110Z,17.80
2018-08-10T04:16:46.697Z,17.90
2018-08-10T04:19:15.507Z,17.90
2018-08-10T04:21:44.107Z,17.90
2018-08-10T04:24:12.712Z,17.90
2018-08-10T04:26:42.038Z,17.90
2018-08-10T04:29:10.752Z,17.90
2018-08-10T04:31:39.303Z,17.90
2018-08-10T04:34:07.908Z,18.00
2018-08-10T04:36:36.263Z,17.90
2018-08-10T04:39:08.689Z,17.90
2018-08-10T04:41:37.041Z,18.00
2018-08-10T04:44:05.695Z,18.00
2018-08-10T04:46:34.279Z,18.00
2018-08-10T04:49:02.783Z,18.00
2018-08-10T04:51:31.376Z,17.90
2018-08-10T04:53:59.672Z,17.90
2018-08-10T04:56:27.952Z,17.90
2018-08-10T04:58:56.783Z,17.90
2018-08-10T05:01:25.767Z,17.90
2018-08-10T05:03:54.299Z,17.90
2018-08-10T05:06:22.975Z,18.00
2018-08-10T05:08:51.272Z,18.00
2018-08-10T05:11:21.121Z,18.00
2018-08-10T05:13:49.553Z,17.90
2018-08-10T05:16:18.059Z,18.00
2018-08-10T05:18:47.175Z,18.00
2018-08-10T05:21:16.765Z,17.90
2018-08-10T05:23:45.602Z,17.90
2018-08-10T05:26:14.214Z,17.90
2018-08-10T05:28:43.195Z,17.80
2018-08-10T05:31:11.765Z,17.60
2018-08-10T05:33:40.993Z,17.40
2018-08-10T05:36:09.883Z,17.30
2018-08-10T05:38:38.745Z,17.10
2018-08-10T05:41:07.368Z,17.10
2018-08-10T05:43:36.225Z,16.90
2018-08-10T05:46:04.847Z,17.00
2018-08-10T05:48:40.150Z,16.90
2018-08-10T05:51:10.879Z,16.90
2018-08-10T05:53:39.285Z,16.80
2018-08-10T05:56:08.203Z,16.80
2018-08-10T05:58:36.592Z,16.70
2018-08-10T06:01:05.421Z,16.70
2018-08-10T06:03:35.785Z,16.60
2018-08-10T06:06:04.963Z,16.60
2018-08-10T06:08:33.491Z,16.50
2018-08-10T06:11:02.415Z,16.50
2018-08-10T06:13:31.056Z,16.50
2018-08-10T06:15:59.630Z,16.50
2018-08-10T06:18:28.170Z,16.50
2018-08-10T06:20:59.730Z,16.50
2018-08-10T06:23:28.483Z,16.40
2018-08-10T06:25:57.102Z,16.40
2018-08-10T06:28:25.680Z,16.30
2018-08-10T06:30:53.949Z,16.40
2018-08-10T06:33:22.483Z,16.30
2018-08-10T06:35:50.856Z,16.30
2018-08-10T06:38:19.695Z,16.30
2018-08-10T06:40:48.605Z,16.30
2018-08-10T06:43:16.956Z,16.20
2018-08-10T06:45:45.567Z,16.10
2018-08-10T06:48:14.434Z,16.00
2018-08-10T06:50:42.983Z,15.90
2018-08-10T06:53:11.448Z,15.80
2018-08-10T06:55:39.943Z,15.80
2018-08-10T06:58:08.645Z,15.70
2018-08-10T07:00:37.512Z,15.80
2018-08-10T07:03:06.661Z,15.90
2018-08-10T07:05:35.432Z,15.90
2018-08-10T07:08:04.047Z,15.90
2018-08-10T07:10:33.637Z,16.00
2018-08-10T07:13:02.671Z,16.00
2018-08-10T07:15:31.064Z,16.00
2018-08-10T07:17:59.401Z,16.00
2018-08-10T07:20:27.684Z,16.10
2018-08-10T07:22:56.284Z,16.00
2018-08-10T07:25:24.630Z,16.00
2018-08-10T07:27:53.025Z,15.90
2018-08-10T07:30:21.333Z,15.80
2018-08-10T07:32:49.754Z,15.70
2018-08-10T07:35:18.072Z,15.60
2018-08-10T07:37:46.441Z,15.40
2018-08-10T07:40:15.132Z,15.40
2018-08-10T07:42:43.407Z,15.30
2018-08-10T07:45:11.946Z,15.30
2018-08-10T07:47:40.391Z,15.20
2018-08-10T07:50:08.865Z,15.30
2018-08-10T07:52:37.400Z,15.20
2018-08-10T07:55:05.928Z,15.10
2018-08-10T07:57:34.493Z,15.10
2018-08-10T08:00:02.778Z,15.00
2018-08-10T08:02:31.391Z,14.90
2018-08-10T08:04:59.672Z,14.90
2018-08-10T08:07:28.560Z,14.90
2018-08-10T08:09:56.896Z,15.00
2018-08-10T08:12:25.856Z,15.10
2018-08-10T08:14:54.117Z,15.00
2018-08-10T08:17:22.399Z,15.10
2018-08-10T08:19:51.164Z,15.10
2018-08-10T08:22:21.164Z,15.10
2018-08-10T08:24:49.434Z,15.10
2018-08-10T08:27:18.977Z,15.20
2018-08-10T08:29:47.536Z,15.20
2018-08-10T08:32:15.981Z,15.20
2018-08-10T08:34:44.633Z,15.30
2018-08-10T08:37:13.067Z,15.30
2018-08-10T08:40:45.967Z,15.30
2018-08-10T08:43:14.925Z,15.40
2018-08-10T08:45:46.590Z,15.30
2018-08-10T08:48:15.183Z,15.40
2018-08-10T08:50:45.159Z,15.30
2018-08-10T08:53:13.603Z,15.40
2018-08-10T08:55:46.388Z,15.40
2018-08-10T08:58:14.988Z,15.40
2018-08-10T09:00:43.913Z,15.20
2018-08-10T09:05:21.153Z,15.20
2018-08-10T09:07:49.530Z,15.20
2018-08-10T09:10:18.891Z,15.20
2018-08-10T09:12:47.267Z,15.20
2018-08-10T09:15:18.072Z,15.20
2018-08-10T09:17:46.392Z,15.20
2018-08-10T09:20:14.874Z,15.30
2018-08-10T09:22:44.008Z,15.20
2018-08-10T09:25:17.409Z,15.10
2018-08-10T09:27:45.827Z,15.10
2018-08-10T09:30:16.133Z,15.20
2018-08-10T09:32:44.989Z,15.30
2018-08-10T09:35:14.169Z,15.30
2018-08-10T09:37:42.888Z,15.10
2018-08-10T09:40:13.284Z,15.00
2018-08-10T09:42:41.792Z,15.10
2018-08-10T09:45:10.949Z,15.20
2018-08-10T09:47:39.583Z,15.30
2018-08-10T09:50:09.749Z,15.40
2018-08-10T09:52:38.623Z,15.40
2018-08-10T09:56:32.717Z,15.50
2018-08-10T09:59:00.987Z,15.40
2018-08-10T10:01:33.756Z,15.40
2018-08-10T10:04:02.139Z,15.30
2018-08-10T10:06:30.516Z,15.30
2018-08-10T10:08:59.230Z,15.30
2018-08-10T10:11:27.661Z,15.30
2018-08-10T10:13:56.099Z,15.30
2018-08-10T10:16:24.599Z,15.40
2018-08-10T10:18:53.143Z,15.40
2018-08-10T10:21:21.955Z,15.30
2018-08-10T10:23:50.228Z,15.30
2018-08-10T10:26:18.498Z,15.30
2018-08-10T10:28:47.024Z,15.20
2018-08-10T10:31:15.573Z,15.30
2018-08-10T10:33:44.272Z,15.30
2018-08-10T10:36:12.590Z,15.30
2018-08-10T10:38:41.527Z,15.40
2018-08-10T10:41:10.408Z,15.50
2018-08-10T10:43:39.216Z,15.60
2018-08-10T10:46:08.149Z,15.60
2018-08-10T10:48:36.751Z,15.70
2018-08-10T10:51:05.344Z,15.70
2018-08-10T10:53:33.931Z,15.80
2018-08-10T10:56:02.562Z,15.90
2018-08-10T10:58:31.120Z,16.20
2018-08-10T11:00:59.688Z,16.50
2018-08-10T11:03:28.019Z,16.70
2018-08-10T11:05:56.618Z,16.70
2018-08-10T11:08:24.997Z,16.70
2018-08-10T11:10:53.606Z,16.80
2018-08-10T11:13:22.191Z,16.90
2018-08-10T11:15:50.780Z,16.70
2018-08-10T11:18:19.108Z,16.70
2018-08-10T11:20:47.412Z,16.70
2018-08-10T11:23:15.860Z,16.60
2018-08-10T11:25:44.331Z,16.50
2018-08-10T11:28:13.333Z,16.40
2018-08-10T11:30:42.315Z,16.30
2018-08-10T11:33:10.676Z,16.40
2018-08-10T11:35:39.560Z,16.30
2018-08-10T11:38:08.492Z,16.30
2018-08-10T11:40:36.864Z,16.50
2018-08-10T11:43:05.176Z,16.80
2018-08-10T11:45:33.937Z,17.00
2018-08-10T11:48:03.838Z,17.40
2018-08-10T11:50:32.448Z,17.70
2018-08-10T11:53:01.208Z,17.40
2018-08-10T11:55:29.700Z,17.00
2018-08-10T11:57:58.771Z,16.90
2018-08-10T12:00:27.507Z,17.00
2018-08-10T12:02:56.263Z,16.90
2018-08-10T12:05:24.583Z,16.80
2018-08-10T12:07:53.534Z,17.00
2018-08-10T12:10:22.156Z,16.80
2018-08-10T12:12:50.809Z,16.80
2018-08-10T12:15:19.680Z,16.60
2018-08-10T12:17:48.056Z,16.70
2018-08-10T12:20:16.933Z,16.60
2018-08-10T12:22:45.323Z,16.60
2018-08-10T12:25:13.583Z,16.60
2018-08-10T12:27:42.187Z,16.60
2018-08-10T12:30:12.124Z,16.50
2018-08-10T12:32:40.526Z,16.20
2018-08-10T12:35:09.903Z,16.30
2018-08-10T12:37:38.523Z,16.30
2018-08-10T12:40:07.504Z,16.40
2018-08-10T12:42:35.801Z,16.20
2018-08-10T12:45:04.223Z,16.30
2018-08-10T12:47:32.580Z,16.30
2018-08-10T12:50:01.167Z,16.50
2018-08-10T12:52:29.720Z,16.60
2018-08-10T12:54:58.109Z,16.80
2018-08-10T12:57:26.649Z,17.00
2018-08-10T12:59:55.331Z,17.10
2018-08-10T13:02:24.196Z,17.20
2018-08-10T13:04:52.716Z,17.10
2018-08-10T13:07:21.770Z,17.40
2018-08-10T13:09:50.295Z,17.50
2018-08-10T13:12:18.909Z,17.30
2018-08-10T13:14:47.640Z,17.50
2018-08-10T13:17:16.528Z,17.50
2018-08-10T13:19:45.150Z,17.70
2018-08-10T13:22:13.697Z,17.80
2018-08-10T13:24:41.963Z,17.70
2018-08-10T13:27:11.172Z,17.60
2018-08-10T13:29:40.129Z,17.60
2018-08-10T13:32:09.439Z,17.70
2018-08-10T13:34:38.522Z,17.80
2018-08-10T13:37:07.665Z,17.90
2018-08-10T13:39:36.053Z,18.00
2018-08-10T13:42:04.641Z,18.00
2018-08-10T13:44:35.179Z,18.10
2018-08-10T13:47:04.266Z,18.00
2018-08-10T13:49:33.206Z,17.80
2018-08-10T13:52:01.527Z,17.80
2018-08-10T13:54:30.222Z,17.80
2018-08-10T13:56:58.543Z,17.80
2018-08-10T13:59:26.901Z,17.80
2018-08-10T14:01:55.796Z,17.80
2018-08-10T14:04:24.091Z,17.80
2018-08-10T14:06:52.732Z,17.80
2018-08-10T14:09:21.441Z,17.80
2018-08-10T14:11:49.718Z,17.90
2018-08-10T14:14:18.617Z,17.90
2018-08-10T14:16:46.936Z,17.90
2018-08-10T14:19:15.977Z,17.80
2018-08-10T14:21:44.527Z,17.70
2018-08-10T14:24:12.834Z,17.70
2018-08-10T14:26:41.384Z,17.70
2018-08-10T14:29:10.155Z,17.60
2018-08-10T14:31:38.989Z,17.60
2018-08-10T14:34:07.963Z,17.80
2018-08-10T14:36:36.836Z,17.70
2018-08-10T14:39:08.138Z,17.80
2018-08-10T14:41:37.066Z,17.90
2018-08-10T14:44:05.493Z,17.90
2018-08-10T14:46:34.423Z,17.90
2018-08-10T14:49:03.294Z,17.90
2018-08-10T14:51:31.895Z,18.10
2018-08-10T14:54:00.851Z,18.10
2018-08-10T14:56:29.142Z,18.20
2018-08-10T14:58:57.485Z,18.10
2018-08-10T15:01:26.365Z,18.10
2018-08-10T15:03:55.411Z,18.10
2018-08-10T15:06:24.214Z,18.10
2018-08-10T15:08:53.196Z,18.20
2018-08-10T15:11:21.846Z,18.20
2018-08-10T15:13:51.145Z,18.30
2018-08-10T15:16:20.049Z,18.40
2018-08-10T15:18:48.613Z,18.30
2018-08-10T15:21:17.539Z,18.40
2018-08-10T15:23:45.860Z,18.50
2018-08-10T15:26:14.824Z,18.60
2018-08-10T15:28:43.462Z,18.70
2018-08-10T15:31:12.027Z,18.80
2018-08-10T15:33:40.487Z,18.70
2018-08-10T15:36:08.954Z,18.70
2018-08-10T15:38:37.404Z,18.70
2018-08-10T15:41:06.032Z,18.70
2018-08-10T15:43:35.093Z,18.80
2018-08-10T15:46:03.568Z,18.90
2018-08-10T15:48:32.450Z,19.20
2018-08-10T15:51:01.415Z,19.30
2018-08-10T15:53:29.793Z,19.30
2018-08-10T15:55:58.388Z,19.30
2018-08-10T15:58:27.436Z,19.10
2018-08-10T16:00:55.928Z,19.10
2018-08-10T16:03:24.502Z,19.00
2018-08-10T16:05:53.307Z,18.90
2018-08-10T16:08:22.047Z,18.90
2018-08-10T16:10:50.879Z,18.90
2018-08-10T16:13:19.708Z,19.00
2018-08-10T16:15:48.370Z,19.00
2018-08-10T16:18:16.660Z,18.90
2018-08-10T16:20:44.948Z,18.70
2018-08-10T16:23:15.245Z,18.50
2018-08-10T16:25:44.435Z,18.40
2018-08-10T16:28:13.086Z,18.40
2018-08-10T16:30:42.538Z,18.30
2018-08-10T16:33:11.139Z,18.20
2018-08-10T16:35:39.764Z,18.20
2018-08-10T16:38:08.221Z,18.20
2018-08-10T16:40:36.887Z,18.20
2018-08-10T16:43:05.467Z,18.20
2018-08-10T16:45:33.734Z,18.20
2018-08-10T16:48:02.278Z,18.10
2018-08-10T16:50:30.604Z,18.10
2018-08-10T16:52:59.881Z,18.10
2018-08-10T16:55:28.505Z,18.00
2018-08-10T16:57:56.807Z,17.80
2018-08-10T17:00:25.361Z,17.70
2018-08-10T17:02:53.648Z,17.70
2018-08-10T17:05:22.711Z,17.60
2018-08-10T17:07:51.168Z,17.60
2018-08-10T17:10:19.701Z,17.60
2018-08-10T17:12:48.065Z,17.50
2018-08-10T17:15:17.885Z,17.50
2018-08-10T17:17:47.232Z,17.50
2018-08-10T17:20:16.795Z,17.50
2018-08-10T17:22:45.630Z,17.50
2018-08-10T17:25:16.659Z,17.50
2018-08-10T17:27:45.156Z,17.50
2018-08-10T17:30:14.557Z,17.50
2018-08-10T17:32:42.944Z,17.50
2018-08-10T17:35:12.970Z,17.50
2018-08-10T17:37:42.252Z,17.50
2018-08-10T17:40:11.244Z,17.40
2018-08-10T17:42:39.801Z,17.30
2018-08-10T17:45:10.304Z,17.30
2018-08-10T17:47:38.734Z,17.20
2018-08-10T17:50:11.534Z,17.20
2018-08-10T17:52:42.493Z,17.20
2018-08-10T17:55:10.827Z,17.20
2018-08-10T17:57:39.396Z,17.20
2018-08-10T18:00:10.471Z,17.20
2018-08-10T18:02:39.683Z,17.10
2018-08-10T18:05:09.743Z,17.10
2018-08-10T18:07:38.107Z,17.00
2018-08-10T18:10:07.056Z,16.90
2018-08-10T18:12:35.844Z,16.90
2018-08-10T18:15:05.471Z,16.90
2018-08-10T18:17:33.747Z,16.90
2018-08-10T18:20:02.360Z,16.90
2018-08-10T18:22:30.651Z,16.80
2018-08-10T18:24:59.518Z,16.80
2018-08-10T18:27:28.293Z,16.70
2018-08-10T18:29:57.025Z,16.70
2018-08-10T18:32:25.743Z,16.70
2018-08-10T18:34:54.398Z,16.70
2018-08-10T18:37:23.082Z,16.60
2018-08-10T18:39:51.432Z,16.60
2018-08-10T18:42:20.050Z,16.60
2018-08-10T18:44:48.627Z,16.50
2018-08-10T18:47:16.911Z,16.40
2018-08-10T18:49:45.179Z,16.40
2018-08-10T18:52:13.453Z,16.30
2018-08-10T18:54:42.016Z,16.30
2018-08-10T18:57:10.310Z,16.20
2018-08-10T18:59:38.932Z,16.10
2018-08-10T19:02:07.607Z,16.10
2018-08-10T19:04:36.224Z,16.10
2018-08-10T19:07:04.915Z,16.00
2018-08-10T19:09:34.439Z,16.00
2018-08-10T19:12:03.144Z,16.00
2018-08-10T19:14:31.608Z,15.90
2018-08-10T19:17:00.155Z,15.80
2018-08-10T19:19:29.040Z,15.70
2018-08-10T19:21:57.824Z,15.70
2018-08-10T19:24:26.463Z,15.70
2018-08-10T19:26:55.095Z,15.70
2018-08-10T19:29:24.411Z,15.60
2018-08-10T19:31:53.102Z,15.60
2018-08-10T19:34:21.408Z,15.60
2018-08-10T19:36:49.684Z,15.50
2018-08-10T19:39:18.640Z,15.50
2018-08-10T19:41:47.144Z,15.50
2018-08-10T19:44:15.777Z,15.40
2018-08-10T19:46:44.860Z,15.40
2018-08-10T19:49:13.795Z,15.50
2018-08-10T19:51:42.401Z,15.40
2018-08-10T19:54:11.033Z,15.40
2018-08-10T19:56:40.311Z,15.40
2018-08-10T19:59:08.869Z,15.40
2018-08-10T20:01:37.549Z,15.30
2018-08-10T20:04:06.239Z,15.20
2018-08-10T20:06:35.397Z,15.20
2018-08-10T20:09:05.676Z,15.20
2018-08-10T20:11:34.424Z,15.10
2018-08-10T20:14:03.352Z,15.10
2018-08-10T20:16:31.917Z,15.10
2018-08-10T20:19:00.433Z,15.10
2018-08-10T20:21:29.156Z,15.00
2018-08-10T20:23:57.755Z,15.00
2018-08-10T20:26:26.760Z,15.00
2018-08-10T20:28:55.031Z,14.90
2018-08-10T20:31:23.491Z,14.80
2018-08-10T20:33:52.161Z,14.70
2018-08-10T20:36:21.460Z,14.70
2018-08-10T20:38:50.238Z,14.60
2018-08-10T20:41:19.080Z,14.60
2018-08-10T20:43:47.687Z,14.50
2018-08-10T20:46:16.935Z,14.50
2018-08-10T20:48:45.417Z,14.40
2018-08-10T20:51:13.999Z,14.40
2018-08-10T20:53:42.301Z,14.40
2018-08-10T20:56:10.921Z,14.40
2018-08-10T20:58:39.999Z,14.30
2018-08-10T21:01:08.790Z,14.30
2018-08-10T21:03:37.071Z,14.40
2018-08-10T21:06:05.393Z,14.50
2018-08-10T21:08:33.860Z,14.50
2018-08-10T21:11:02.352Z,14.50
2018-08-10T21:13:30.650Z,14.50
2018-08-10T21:15:59.170Z,14.40
2018-08-10T21:18:28.221Z,14.50
2018-08-10T21:20:56.782Z,14.50
2018-08-10T21:23:25.518Z,14.50
2018-08-10T21:25:53.935Z,14.40
2018-08-10T21:28:22.235Z,14.40
2018-08-10T21:30:50.600Z,14.30
2018-08-10T21:33:19.002Z,14.20
2018-08-10T21:35:47.342Z,14.10
2018-08-10T21:38:16.397Z,14.10
2018-08-10T21:40:44.719Z,14.10
2018-08-10T21:43:13.002Z,14.00
2018-08-10T21:45:42.280Z,14.00
2018-08-10T21:48:10.536Z,13.90
2018-08-10T21:50:39.096Z,13.90
2018-08-10T21:53:07.636Z,13.90
2018-08-10T21:55:36.594Z,13.80
2018-08-10T21:58:05.146Z,13.80
2018-08-10T22:00:49.012Z,13.80
2018-08-10T22:03:17.965Z,13.80
2018-08-10T22:05:46.289Z,13.90
2018-08-10T22:08:15.407Z,13.90
2018-08-10T22:10:44.289Z,13.90
2018-08-10T22:13:18.173Z,13.90
2018-08-10T22:15:51.846Z,13.90
2018-08-10T22:18:25.556Z,14.00
2018-08-10T22:20:55.071Z,14.00
2018-08-10T22:23:23.930Z,14.10
2018-08-10T22:25:52.247Z,14.10
2018-08-10T22:28:20.527Z,14.10
2018-08-10T22:30:49.168Z,14.10
2018-08-10T22:33:17.455Z,14.10
2018-08-10T22:35:46.228Z,14.10
2018-08-10T22:38:14.836Z,14.10
2018-08-10T22:40:43.530Z,14.10
2018-08-10T22:43:12.615Z,14.10
2018-08-10T22:45:42.001Z,14.00
2018-08-10T22:48:10.435Z,14.00
2018-08-10T22:50:39.692Z,14.00
2018-08-10T22:53:08.082Z,14.10
2018-08-10T22:55:37.591Z,14.10
2018-08-10T22:58:06.342Z,14.10
2018-08-10T23:00:34.694Z,14.10
2018-08-10T23:03:03.264Z,14.00
2018-08-10T23:05:31.573Z,14.00
2018-08-10T23:08:00.200Z,13.90
2018-08-10T23:10:28.868Z,13.80
2018-08-10T23:12:57.432Z,13.70
2018-08-10T23:15:26.416Z,13.70
2018-08-10T23:17:54.963Z,13.80
2018-08-10T23:20:23.643Z,13.80
2018-08-10T23:22:52.756Z,13.80
2018-08-10T23:25:21.207Z,13.80
2018-08-10T23:27:49.500Z,13.70
2018-08-10T23:30:18.400Z,13.50
2018-08-10T23:32:47.287Z,13.50
2018-08-10T23:35:15.690Z,13.50
2018-08-10T23:37:44.209Z,13.40
2018-08-10T23:40:13.951Z,13.40
2018-08-10T23:42:42.471Z,13.40
2018-08-10T23:45:13.674Z,13.50
2018-08-10T23:47:42.791Z,13.60
2018-08-10T23:50:13.611Z,13.60
2018-08-10T23:52:42.119Z,13.60
2018-08-10T23:55:11.152Z,13.60
2018-08-10T23:57:40.450Z,13.60
